KWRL/WRL METAR and TAF weather

Enter ICAO airport designator
Station Type Date Time Source
KWRL METAR 2019/04/18 10:53 UTC NOAA

KWRL 181053Z AUTO VRB03KT 10SM BKN090 06/M04 A3019 RMK AO2 SLP217 T00611039


Station Type Date Time Source
KWRL Decoded METAR 2019/04/18 10:53 UTC NOAA

WORLAND MUNICIPAL AIRPORT, WY, United States (KWRL) 43-58N 107-57W 1271M
Apr 18, 2019 - 06:53 AM EDT / 2019.04.18 1053 UTC
Wind: Variable at 3 MPH (3 KT):0
Visibility: 10 mile(s):0
Sky conditions: mostly cloudy
Temperature: 43.0 F (6.1 C)
Dew Point: 25.0 F (-3.9 C)
Relative Humidity: 48%
Pressure (altimeter): 30.19 in. Hg (1022 hPa)
ob: KWRL 181053Z AUTO VRB03KT 10SM BKN090 06/M04 A3019 RMK AO2 SLP217 T00611039
cycle: 11

Station Type Date Time Source
KWRL TAF 2019/04/18 06:27 UTC NOAA

TAF KWRL 180524Z 1806/1906 VRB05KT P6SM VCSH BKN080
FM180900 VRB05KT P6SM SCT100
FM181100 VRB05KT P6SM SKC
FM182300 15006KT P6SM SKC

Example: see airport list